Time;durP1;ratioP1;P1;durP2;ratioP2;P2;SDS_P1;SDS_P2;PMS_P1;PMS_P2;Temp;Humidity;BMP_temperature;BMP_pressure;BME280_temperature;BME280_humidity;BME280_pressure;Samples;Min_cycle;Max_cycle;Signal;HPM_P1;HPM_P2
2021/10/02 00:36:31;;;;;;;9.00;2.47;;;33.70;12.90;;;;;;5090875;28;20104;-61
2021/10/02 00:41:07;;;;;;;9.02;2.60;;;33.60;12.70;;;;;;5078803;28;20091;-60
2021/10/02 00:44:39;;;;;;;4.90;2.40;;;33.50;12.60;;;;;;5090908;28;20072;-62
2021/10/02 00:47:09;;;;;;;7.68;2.72;;;33.40;12.60;;;;;;5076504;28;20609;-62
2021/10/02 00:49:38;;;;;;;6.35;2.45;;;33.30;12.20;;;;;;5106565;27;20083;-62
2021/10/02 00:52:07;;;;;;;9.98;2.60;;;33.20;12.50;;;;;;5072847;28;20478;-62
2021/10/02 00:54:34;;;;;;;9.77;2.40;;;33.20;11.60;;;;;;5073572;28;20099;-63
2021/10/02 00:57:02;;;;;;;18.23;3.15;;;33.10;11.30;;;;;;5073724;28;20113;-62
2021/10/02 00:59:30;;;;;;;13.18;2.42;;;33.00;13.00;;;;;;5090406;28;20072;-61
2021/10/02 01:02:07;;;;;;;9.23;2.80;;;32.90;12.20;;;;;;5089909;28;20160;-61
2021/10/02 01:04:42;;;;;;;4.13;2.45;;;32.80;27.00;;;;;;5090465;28;20695;-63
2021/10/02 01:07:24;;;;;;;5.32;2.40;;;32.60;18.00;;;;;;5090986;28;20576;-62
2021/10/02 01:10:01;;;;;;;9.93;2.80;;;32.40;13.10;;;;;;5089579;28;20036;-63
2021/10/02 01:13:44;;;;;;;11.20;2.70;;;32.40;13.70;;;;;;5091030;28;20102;-64
2021/10/02 01:16:26;;;;;;;19.73;3.28;;;32.20;13.50;;;;;;4966597;28;20101;-63
2021/10/02 01:19:17;;;;;;;13.20;3.10;;;31.80;38.90;;;;;;4967414;28;20066;-62
2021/10/02 01:22:22;;;;;;;24.17;3.88;;;31.80;15.10;;;;;;4964681;28;20497;-60
2021/10/02 01:25:21;;;;;;;15.13;3.53;;;31.70;15.50;;;;;;4952910;28;20536;-61
2021/10/02 01:28:22;;;;;;;18.42;4.03;;;31.50;16.20;;;;;;4952606;28;20161;-61
2021/10/02 01:34:04;;;;;;;22.33;3.65;;;31.20;17.60;;;;;;4936245;29;20122;-62
2021/10/02 01:37:11;;;;;;;24.58;4.15;;;31.10;17.50;;;;;;4913010;29;20459;-63
2021/10/02 01:47:59;;;;;;;41.88;6.43;;;30.40;18.50;;;;;;4986032;28;20097;-62
2021/10/02 01:50:28;;;;;;;50.35;7.43;;;30.20;18.20;;;;;;4982212;28;20178;-62
2021/10/02 01:53:02;;;;;;;70.38;7.78;;;30.10;18.70;;;;;;4988654;28;20086;-63
2021/10/02 01:55:29;;;;;;;78.03;7.35;;;;;;;;;;4988285;28;20098;-62
2021/10/02 01:58:05;;;;;;;72.10;7.43;;;29.80;18.70;;;;;;4973261;28;20100;-62
2021/10/02 02:00:32;;;;;;;65.90;7.63;;;;;;;;;;4988284;28;20268;-62
2021/10/02 02:03:04;;;;;;;53.47;6.43;;;;;;;;;;4988790;28;20073;-62
2021/10/02 02:05:31;;;;;;;41.97;6.32;;;;;;;;;;4972342;28;20062;-62
2021/10/02 02:08:01;;;;;;;38.03;5.97;;;;;;;;;;4976330;28;20034;-62
2021/10/02 02:10:31;;;;;;;50.08;6.22;;;29.50;17.70;;;;;;5080803;28;20618;-63
2021/10/02 02:13:02;;;;;;;41.88;6.10;;;29.50;18.00;;;;;;5088248;28;20077;-62
2021/10/02 02:15:31;;;;;;;23.75;4.97;;;29.40;19.50;;;;;;5088489;28;20095;-63
2021/10/02 02:18:05;;;;;;;28.02;4.95;;;29.20;19.30;;;;;;5087419;28;20095;-63
2021/10/02 02:20:37;;;;;;;39.78;6.78;;;29.00;45.10;;;;;;5072354;28;20065;-64
2021/10/02 02:23:13;;;;;;;30.95;6.30;;;29.10;26.20;;;;;;5088837;28;20044;-64
2021/10/02 02:25:45;;;;;;;38.33;6.05;;;;;;;;;;5073754;28;20085;-62
2021/10/02 02:28:14;;;;;;;43.72;6.65;;;;;;;;;;5086294;28;20024;-61
2021/10/02 02:30:41;;;;;;;39.05;6.38;;;28.90;51.00;;;;;;5071586;28;20108;-62
2021/10/02 02:33:08;;;;;;;35.60;6.68;;;28.80;19.60;;;;;;5088842;28;20296;-62
2021/10/02 02:35:34;;;;;;;38.13;6.53;;;29.10;34.70;;;;;;5090985;28;20093;-61
2021/10/02 02:38:01;;;;;;;42.42;6.97;;;28.60;20.70;;;;;;5089417;28;20087;-63
2021/10/02 02:40:28;;;;;;;44.83;8.27;;;28.60;20.30;;;;;;5089703;28;20068;-63
2021/10/02 02:42:56;;;;;;;42.30;8.05;;;28.50;21.10;;;;;;5089671;28;20433;-61
2021/10/02 02:45:23;;;;;;;30.17;7.20;;;28.40;20.60;;;;;;5087921;28;20080;-62
2021/10/02 02:48:04;;;;;;;46.63;8.23;;;28.30;21.50;;;;;;5086199;28;20435;-61
2021/10/02 02:50:43;;;;;;;41.67;7.00;;;28.20;20.90;;;;;;5086029;28;20073;-60
2021/10/02 02:53:40;;;;;;;45.83;7.65;;;28.20;21.20;;;;;;5085613;28;20079;-62
2021/10/02 02:56:32;;;;;;;44.28;8.85;;;28.20;21.30;;;;;;5088236;28;20565;-61
2021/10/02 02:59:03;;;;;;;37.00;7.35;;;26.80;35.00;;;;;;5070204;28;20069;-62
2021/10/02 03:01:31;;;;;;;50.80;8.07;;;28.00;20.90;;;;;;5055472;28;20075;-62
2021/10/02 03:03:59;;;;;;;44.85;8.27;;;28.00;21.50;;;;;;5088063;28;20072;-60
2021/10/02 03:06:26;;;;;;;40.92;8.73;;;27.90;21.70;;;;;;5087760;28;20599;-62
2021/10/02 03:08:56;;;;;;;48.13;8.85;;;27.90;22.10;;;;;;5089124;28;20179;-62
2021/10/02 03:11:26;;;;;;;52.50;10.05;;;27.90;22.60;;;;;;5088449;28;20446;-62
2021/10/02 03:13:56;;;;;;;42.97;9.60;;;27.70;60.30;;;;;;5088706;28;20084;-62
2021/10/02 03:16:25;;;;;;;49.55;10.35;;;27.80;58.90;;;;;;5091336;28;20371;-62
2021/10/02 03:18:56;;;;;;;58.70;10.50;;;27.60;22.70;;;;;;5088023;28;20024;-61
2021/10/02 03:21:24;;;;;;;59.88;12.00;;;27.50;23.10;;;;;;5089804;28;20069;-62
2021/10/02 03:23:51;;;;;;;71.00;25.73;;;27.50;24.10;;;;;;5092270;28;20209;-62
2021/10/02 03:26:18;;;;;;;85.03;34.65;;;27.40;23.20;;;;;;5093914;28;20433;-61
2021/10/02 03:28:47;;;;;;;73.05;28.02;;;27.30;27.30;;;;;;5092398;28;20491;-61
2021/10/02 03:31:13;;;;;;;73.70;29.08;;;27.40;23.00;;;;;;5076290;28;20111;-61
2021/10/02 03:33:40;;;;;;;65.07;19.23;;;27.40;23.30;;;;;;5058254;28;20091;-61
2021/10/02 03:36:08;;;;;;;47.78;14.07;;;27.20;38.90;;;;;;5093038;28;20171;-63
2021/10/02 03:38:36;;;;;;;85.38;14.20;;;27.50;27.60;;;;;;5094592;28;20072;-62
2021/10/02 03:41:04;;;;;;;54.10;13.35;;;27.20;22.50;;;;;;5075117;28;20076;-63
2021/10/02 03:43:31;;;;;;;66.93;13.23;;;27.20;22.60;;;;;;5091391;28;20539;-63
2021/10/02 03:45:58;;;;;;;59.17;13.68;;;27.20;22.70;;;;;;5091892;28;20097;-61
2021/10/02 03:48:26;;;;;;;69.20;13.43;;;27.10;22.70;;;;;;5091044;28;20077;-60
2021/10/02 03:50:52;;;;;;;70.53;15.88;;;27.00;23.40;;;;;;5090936;28;20089;-61
2021/10/02 03:53:19;;;;;;;67.63;16.10;;;27.10;23.70;;;;;;5074829;28;20159;-63
2021/10/02 03:55:46;;;;;;;93.50;18.10;;;27.00;23.40;;;;;;5093159;28;20084;-62
2021/10/02 03:58:12;;;;;;;69.32;17.10;;;27.00;22.90;;;;;;5093387;28;20086;-61
2021/10/02 04:00:39;;;;;;;62.47;16.88;;;27.10;23.40;;;;;;5091493;28;20504;-63
2021/10/02 04:03:05;;;;;;;60.92;18.42;;;27.00;23.90;;;;;;5090000;28;20064;-62
2021/10/02 04:05:31;;;;;;;60.22;18.45;;;26.90;24.00;;;;;;5092069;28;20171;-61
2021/10/02 04:07:58;;;;;;;69.53;19.13;;;26.90;24.60;;;;;;5091042;28;20433;-63
2021/10/02 04:10:24;;;;;;;66.28;19.73;;;26.80;24.60;;;;;;5092174;28;20068;-62
2021/10/02 04:12:51;;;;;;;66.30;20.30;;;26.90;23.70;;;;;;5091690;28;20127;-63
2021/10/02 04:15:17;;;;;;;58.40;18.77;;;26.80;24.10;;;;;;5091641;28;20146;-63
2021/10/02 04:17:43;;;;;;;65.93;19.48;;;26.80;24.60;;;;;;5092189;28;20100;-62
2021/10/02 04:20:10;;;;;;;76.40;19.63;;;26.80;24.40;;;;;;5091000;28;20134;-63
2021/10/02 04:22:37;;;;;;;62.78;18.98;;;26.70;24.80;;;;;;5096564;28;20080;-63
2021/10/02 04:25:04;;;;;;;63.00;19.05;;;26.60;25.20;;;;;;5075639;28;20117;-62
2021/10/02 04:27:30;;;;;;;55.08;17.65;;;26.50;25.40;;;;;;5074565;28;20079;-60
2021/10/02 04:29:56;;;;;;;51.92;17.48;;;26.40;25.40;;;;;;5091059;28;20112;-62
2021/10/02 04:32:23;;;;;;;59.55;17.63;;;26.30;25.60;;;;;;5091013;28;20517;-62
2021/10/02 04:34:49;;;;;;;61.25;17.63;;;26.30;25.70;;;;;;5090613;28;20615;-63
2021/10/02 04:37:15;;;;;;;59.63;17.27;;;26.30;25.70;;;;;;5090481;28;20128;-63
2021/10/02 04:39:42;;;;;;;57.60;17.25;;;26.30;25.80;;;;;;5089613;28;20073;-63
2021/10/02 04:42:08;;;;;;;53.08;17.08;;;26.30;26.00;;;;;;5091805;28;20092;-63
2021/10/02 04:44:35;;;;;;;49.67;16.95;;;26.40;25.60;;;;;;5091111;28;20165;-62
2021/10/02 04:47:01;;;;;;;63.85;16.30;;;26.30;25.00;;;;;;5089534;28;20084;-61
2021/10/02 04:49:27;;;;;;;54.15;18.50;;;26.30;25.20;;;;;;5092102;28;20074;-62
2021/10/02 04:51:54;;;;;;;68.18;20.10;;;26.20;25.20;;;;;;5090716;28;20107;-64
2021/10/02 04:54:21;;;;;;;74.63;20.92;;;;;;;;;;5093373;28;20069;-63
2021/10/02 04:56:47;;;;;;;70.57;21.45;;;26.50;56.80;;;;;;5091874;28;20100;-63
2021/10/02 04:59:13;;;;;;;89.75;21.33;;;26.20;25.70;;;;;;5075254;28;20075;-61
2021/10/02 05:01:40;;;;;;;63.75;20.95;;;26.10;25.90;;;;;;5090737;28;20118;-62
2021/10/02 05:04:06;;;;;;;61.65;21.00;;;26.10;26.80;;;;;;5090535;28;20113;-62
2021/10/02 05:06:33;;;;;;;61.33;20.40;;;26.00;27.30;;;;;;5087403;28;20087;-62
2021/10/02 05:08:59;;;;;;;71.38;19.77;;;26.00;26.90;;;;;;5095640;28;20087;-62
2021/10/02 05:11:26;;;;;;;58.00;19.63;;;26.00;27.10;;;;;;5091098;28;20126;-61
2021/10/02 05:13:53;;;;;;;73.30;20.17;;;26.00;27.30;;;;;;5089277;28;20107;-61
2021/10/02 05:16:19;;;;;;;58.03;18.27;;;25.90;26.70;;;;;;5091605;28;20092;-62
2021/10/02 05:18:46;;;;;;;62.63;16.42;;;25.80;26.80;;;;;;5095834;28;20096;-62
2021/10/02 05:21:13;;;;;;;55.50;17.25;;;25.80;27.40;;;;;;5090585;28;20069;-62
2021/10/02 05:23:39;;;;;;;58.25;16.90;;;25.70;28.60;;;;;;5091694;28;20076;-61
2021/10/02 05:26:07;;;;;;;51.00;15.80;;;25.60;28.10;;;;;;5090652;28;20228;-61
2021/10/02 05:28:34;;;;;;;49.15;17.35;;;25.60;28.30;;;;;;5091371;28;20100;-62
2021/10/02 05:31:00;;;;;;;59.55;18.23;;;25.50;28.90;;;;;;5089912;28;20116;-61
2021/10/02 05:33:26;;;;;;;64.05;18.33;;;25.40;27.80;;;;;;5089832;28;20054;-59
2021/10/02 05:35:53;;;;;;;49.40;16.52;;;25.40;28.10;;;;;;5090418;28;20103;-62
2021/10/02 05:38:20;;;;;;;56.60;17.65;;;25.50;28.20;;;;;;5090983;28;20073;-62
2021/10/02 05:40:49;;;;;;;63.60;17.73;;;25.30;58.80;;;;;;5091166;28;20096;-62
2021/10/02 05:43:16;;;;;;;63.72;16.65;;;25.40;57.50;;;;;;5089558;28;20055;-63
2021/10/02 05:45:42;;;;;;;56.42;17.42;;;;;;;;;;5072979;28;20107;-62
2021/10/02 05:48:09;;;;;;;49.78;15.93;;;;;;;;;;5090149;28;20056;-62
2021/10/02 05:50:35;;;;;;;44.55;14.73;;;;;;;;;;5089036;28;20020;-60
2021/10/02 05:53:02;;;;;;;52.17;16.08;;;;;;;;;;5089000;28;20032;-62
2021/10/02 05:55:28;;;;;;;68.00;15.57;;;25.30;41.80;;;;;;5088655;28;20093;-61
2021/10/02 05:57:54;;;;;;;39.92;14.20;;;25.10;28.30;;;;;;5091042;28;20017;-62
2021/10/02 06:00:21;;;;;;;48.33;14.93;;;25.10;28.70;;;;;;5090974;28;20103;-61
2021/10/02 06:02:47;;;;;;;46.30;14.93;;;25.10;28.60;;;;;;5072501;28;20077;-61
2021/10/02 06:05:14;;;;;;;41.25;14.25;;;;;;;;;;5089399;28;20085;-61
2021/10/02 06:07:40;;;;;;;43.97;13.93;;;25.30;44.30;;;;;;5088861;28;20088;-61
2021/10/02 06:10:07;;;;;;;44.20;13.98;;;;;;;;;;5072063;28;20068;-61
2021/10/02 06:12:34;;;;;;;40.78;12.75;;;;;;;;;;5088357;28;20458;-61
2021/10/02 06:15:00;;;;;;;32.17;13.30;;;;;;;;;;5087122;28;20028;-61
2021/10/02 06:17:27;;;;;;;37.92;14.15;;;;;;;;;;5089548;28;20056;-61
2021/10/02 06:19:53;;;;;;;39.75;12.80;;;;;;;;;;5089105;28;20024;-61
2021/10/02 06:22:20;;;;;;;41.80;12.35;;;;;;;;;;5072432;28;20504;-62
2021/10/02 06:24:46;;;;;;;38.70;13.50;;;24.20;39.00;;;;;;5090666;28;20032;-63
2021/10/02 06:27:15;;;;;;;39.50;13.40;;;24.60;29.60;;;;;;5087586;28;20084;-61
2021/10/02 06:29:41;;;;;;;36.72;13.30;;;24.70;29.70;;;;;;5086882;28;20099;-60
2021/10/02 06:32:08;;;;;;;43.50;12.27;;;;;;;;;;5074836;28;20475;-60
2021/10/02 06:34:34;;;;;;;44.58;13.60;;;;;;;;;;5085954;28;20027;-60
2021/10/02 06:37:03;;;;;;;45.05;13.15;;;;;;;;;;5088242;28;20576;-61
2021/10/02 06:39:30;;;;;;;42.40;13.07;;;24.30;58.10;;;;;;5088113;28;20058;-61
2021/10/02 06:41:56;;;;;;;43.00;13.60;;;;;;;;;;5087126;28;20122;-61
2021/10/02 06:44:23;;;;;;;52.92;14.73;;;;;;;;;;5071253;28;20020;-61
2021/10/02 06:46:49;;;;;;;46.25;14.68;;;24.50;58.60;;;;;;5087819;28;20037;-61
2021/10/02 06:49:15;;;;;;;61.40;15.75;;;24.50;29.30;;;;;;5088345;28;20069;-62
2021/10/02 06:51:42;;;;;;;52.78;16.27;;;24.60;29.90;;;;;;5088398;28;20129;-63
2021/10/02 06:54:08;;;;;;;66.25;16.55;;;24.60;29.80;;;;;;5086932;28;20084;-62
2021/10/02 06:56:36;;;;;;;54.95;17.67;;;23.70;53.60;;;;;;5070336;28;20187;-62
2021/10/02 06:59:02;;;;;;;44.72;15.63;;;;;;;;;;5087685;28;20062;-61
2021/10/02 07:01:29;;;;;;;54.42;16.20;;;24.60;61.60;;;;;;5088939;28;20038;-61
2021/10/02 07:03:56;;;;;;;46.33;16.50;;;;;;;;;;5087877;28;20024;-61
2021/10/02 07:06:22;;;;;;;49.55;17.20;;;;;;;;;;5087357;28;20107;-61
2021/10/02 07:08:49;;;;;;;55.60;19.95;;;24.20;57.40;;;;;;5072842;28;20092;-61
2021/10/02 07:11:15;;;;;;;47.78;18.40;;;;;;;;;;5087118;28;20175;-63
2021/10/02 07:13:42;;;;;;;62.22;20.02;;;;;;;;;;5088853;28;20020;-61
2021/10/02 07:16:08;;;;;;;51.17;18.58;;;;;;;;;;5087583;28;20153;-62
2021/10/02 07:18:35;;;;;;;63.90;20.92;;;;;;;;;;5089568;28;20051;-61
2021/10/02 07:21:01;;;;;;;64.35;21.77;;;;;;;;;;5088288;28;20031;-62
2021/10/02 07:23:29;;;;;;;57.25;19.88;;;23.90;56.40;;;;;;5087947;28;20028;-61
2021/10/02 07:25:56;;;;;;;54.42;21.55;;;24.10;30.60;;;;;;5086401;28;20083;-61
2021/10/02 07:28:23;;;;;;;73.60;21.75;;;;;;;;;;5085758;28;20119;-62
2021/10/02 07:30:50;;;;;;;69.13;21.25;;;;;;;;;;5087749;28;20059;-62
2021/10/02 07:33:16;;;;;;;53.00;21.88;;;23.70;42.40;;;;;;5086047;28;20020;-62
2021/10/02 07:35:43;;;;;;;72.30;21.63;;;24.00;31.10;;;;;;5087995;28;20461;-62
2021/10/02 07:38:09;;;;;;;57.47;19.63;;;23.80;56.80;;;;;;5087609;28;20036;-62
2021/10/02 07:40:39;;;;;;;67.82;21.40;;;23.90;30.90;;;;;;5086621;28;20084;-63
2021/10/02 07:43:06;;;;;;;64.00;20.30;;;23.60;57.70;;;;;;5087426;28;20084;-61
2021/10/02 07:45:33;;;;;;;66.05;20.65;;;23.70;58.00;;;;;;5087333;28;20477;-63
2021/10/02 07:48:02;;;;;;;64.60;22.77;;;23.70;31.20;;;;;;5086774;28;20459;-62
2021/10/02 07:50:28;;;;;;;65.82;20.30;;;23.80;36.50;;;;;;5071812;28;20084;-61
2021/10/02 07:52:56;;;;;;;63.28;21.15;;;23.70;70.30;;;;;;5073004;28;20103;-61
2021/10/02 07:55:24;;;;;;;59.20;20.65;;;23.70;31.60;;;;;;5076600;28;20095;-63
2021/10/02 07:57:51;;;;;;;69.97;21.00;;;23.70;32.40;;;;;;5087165;28;20722;-63
2021/10/02 08:00:20;;;;;;;61.15;20.05;;;23.50;60.40;;;;;;5086847;28;20065;-62
2021/10/02 08:02:52;;;;;;;71.88;20.05;;;23.70;61.30;;;;;;5086894;28;20024;-62
2021/10/02 08:05:20;;;;;;;63.33;20.17;;;23.70;31.60;;;;;;5054060;28;20084;-63
2021/10/02 08:07:47;;;;;;;67.45;19.42;;;23.60;32.00;;;;;;5088124;28;20089;-59
2021/10/02 08:10:15;;;;;;;62.00;18.90;;;;;;;;;;5089708;28;20490;-60
2021/10/02 08:12:42;;;;;;;55.28;17.20;;;23.50;30.80;;;;;;5088884;28;20020;-63
2021/10/02 08:15:09;;;;;;;61.20;16.00;;;23.60;31.40;;;;;;5076715;28;20088;-61
2021/10/02 08:17:38;;;;;;;57.25;16.30;;;23.50;31.50;;;;;;5089944;28;20119;-60
2021/10/02 08:20:11;;;;;;;40.47;14.65;;;;;;;;;;5058017;28;20125;-61
2021/10/02 08:22:45;;;;;;;45.55;13.43;;;23.20;29.60;;;;;;5091475;28;20020;-61
2021/10/02 08:25:14;;;;;;;35.30;12.52;;;23.40;46.10;;;;;;5091223;28;20083;-63
2021/10/02 08:27:41;;;;;;;62.50;14.80;;;23.30;29.70;;;;;;5092621;28;20035;-63
2021/10/02 08:30:09;;;;;;;53.35;15.52;;;23.40;30.00;;;;;;5076056;28;20097;-61
2021/10/02 08:32:36;;;;;;;54.80;14.07;;;;;;;;;;5073838;28;20080;-63
2021/10/02 08:35:04;;;;;;;47.35;14.07;;;23.40;29.20;;;;;;5090172;28;20024;-61
2021/10/02 08:37:30;;;;;;;45.55;13.05;;;23.50;29.60;;;;;;5094549;28;20076;-61
2021/10/02 08:39:57;;;;;;;46.05;11.85;;;;;;;;;;5089913;28;20146;-62
2021/10/02 08:42:25;;;;;;;31.20;10.93;;;23.40;28.00;;;;;;5090026;28;20067;-63
2021/10/02 08:44:53;;;;;;;41.83;11.68;;;23.60;28.40;;;;;;5073590;28;20081;-62
2021/10/02 08:47:21;;;;;;;33.92;10.48;;;;;;;;;;5072551;28;20101;-62
2021/10/02 08:49:48;;;;;;;24.33;8.85;;;;;;;;;;5089896;28;20024;-61
2021/10/02 08:52:22;;;;;;;38.40;10.35;;;23.80;27.30;;;;;;5091330;28;20024;-60
2021/10/02 08:54:50;;;;;;;36.45;9.13;;;23.40;58.10;;;;;;5089911;28;20131;-61
2021/10/02 08:57:21;;;;;;;26.38;8.65;;;;;;;;;;5090107;28;20026;-61
2021/10/02 08:59:48;;;;;;;30.98;8.95;;;23.50;27.70;;;;;;5088844;28;20464;-61
2021/10/02 09:02:15;;;;;;;27.95;7.20;;;;;;;;;;5090052;28;20506;-61
2021/10/02 09:04:41;;;;;;;29.33;8.30;;;23.40;26.90;;;;;;5088265;28;20030;-61
2021/10/02 09:07:08;;;;;;;28.83;7.07;;;;;;;;;;5088857;28;20073;-61
2021/10/02 09:09:35;;;;;;;26.45;8.02;;;;;;;;;;5073450;28;20020;-60
2021/10/02 09:12:04;;;;;;;26.00;7.35;;;23.40;47.00;;;;;;5090891;28;20016;-61
2021/10/02 09:14:31;;;;;;;28.27;8.90;;;23.40;32.10;;;;;;5088377;28;20032;-61
2021/10/02 09:16:58;;;;;;;23.33;7.72;;;;;;;;;;5088399;28;20075;-62
2021/10/02 09:19:31;;;;;;;25.38;7.85;;;22.90;50.50;;;;;;5088746;28;20433;-61
2021/10/02 09:22:04;;;;;;;27.85;7.70;;;20.80;26.10;;;;;;5089038;28;20077;-61
2021/10/02 09:24:42;;;;;;;19.60;6.85;;;23.10;27.30;;;;;;5090057;28;20070;-61
2021/10/02 09:27:13;;;;;;;26.48;8.82;;;;;;;;;;5057431;28;21157;-61
2021/10/02 09:29:43;;;;;;;34.13;8.00;;;23.20;26.40;;;;;;5088025;28;20034;-60
2021/10/02 09:32:11;;;;;;;36.15;8.00;;;;;;;;;;5088292;28;20040;-60
2021/10/02 09:34:45;;;;;;;22.80;7.30;;;;;;;;;;5074742;28;20029;-61
2021/10/02 09:37:18;;;;;;;23.90;7.07;;;;;;;;;;5089542;28;20028;-61
2021/10/02 09:39:45;;;;;;;27.52;7.95;;;;;;;;;;5089052;28;20462;-61
2021/10/02 09:42:26;;;;;;;29.10;7.70;;;;;;;;;;5072567;28;20020;-63
2021/10/02 09:45:00;;;;;;;29.25;8.40;;;23.60;41.10;;;;;;5088918;28;20038;-64
2021/10/02 09:47:26;;;;;;;22.27;8.52;;;23.00;48.70;;;;;;5089477;28;20036;-62
2021/10/02 09:49:53;;;;;;;29.17;8.77;;;23.00;41.00;;;;;;5088383;28;20180;-60
2021/10/02 09:52:27;;;;;;;35.25;9.00;;;;;;;;;;5088849;28;20736;-60
2021/10/02 09:54:53;;;;;;;29.63;8.63;;;;;;;;;;5090600;28;20024;-60
2021/10/02 09:57:22;;;;;;;27.95;8.30;;;23.50;25.10;;;;;;5072826;28;20028;-61
2021/10/02 09:59:54;;;;;;;27.25;9.48;;;;;;;;;;5090272;28;20060;-61
2021/10/02 10:02:25;;;;;;;36.28;8.38;;;23.40;45.70;;;;;;5086824;28;20027;-62
2021/10/02 10:04:55;;;;;;;28.50;8.27;;;22.40;46.90;;;;;;5088575;28;20092;-61
2021/10/02 10:07:23;;;;;;;24.05;7.97;;;22.60;41.10;;;;;;5087103;28;20071;-61
2021/10/02 10:10:19;;;;;;;32.38;9.20;;;23.40;27.00;;;;;;5088993;28;20074;-63
2021/10/02 10:12:45;;;;;;;28.85;8.73;;;23.10;42.20;;;;;;5011445;28;20175;-61
2021/10/02 10:15:39;;;;;;;30.33;8.60;;;23.00;25.70;;;;;;5011223;28;20184;-64
2021/10/02 10:18:08;;;;;;;30.90;8.52;;;23.00;25.20;;;;;;5010862;28;20110;-62
2021/10/02 10:20:55;;;;;;;33.03;7.45;;;;;;;;;;5011497;28;20120;-62
2021/10/02 10:23:33;;;;;;;31.15;8.23;;;23.00;25.30;;;;;;5010944;28;20505;-61
2021/10/02 10:26:08;;;;;;;42.85;8.45;;;22.90;54.80;;;;;;5010936;28;20044;-61
2021/10/02 10:28:41;;;;;;;29.50;7.40;;;23.00;25.60;;;;;;5011867;28;20195;-61
2021/10/02 10:31:20;;;;;;;21.70;7.38;;;22.90;42.30;;;;;;5027234;28;20114;-61
2021/10/02 10:33:48;;;;;;;33.28;8.60;;;;;;;;;;5008974;28;20045;-63
2021/10/02 10:36:16;;;;;;;28.00;7.70;;;22.70;52.90;;;;;;5010046;28;20029;-63
2021/10/02 10:38:43;;;;;;;26.30;6.50;;;22.80;28.60;;;;;;5011419;28;20423;-61
2021/10/02 10:41:12;;;;;;;13.68;5.85;;;22.70;23.30;;;;;;4994905;28;20159;-61
2021/10/02 10:43:38;;;;;;;17.92;5.22;;;;;;;;;;5010827;28;20085;-63
2021/10/02 10:46:08;;;;;;;13.68;4.78;;;22.50;39.70;;;;;;5026159;28;20514;-61
2021/10/02 10:48:36;;;;;;;14.27;4.80;;;22.90;48.70;;;;;;5014505;28;20043;-63
2021/10/02 10:51:08;;;;;;;16.70;4.93;;;22.60;30.80;;;;;;5088812;28;20020;-62
2021/10/02 10:53:46;;;;;;;15.25;4.50;;;22.60;25.20;;;;;;5055373;28;20077;-61
2021/10/02 10:56:15;;;;;;;25.42;5.65;;;22.70;22.50;;;;;;5072333;28;20098;-61
2021/10/02 10:58:42;;;;;;;20.92;4.90;;;22.60;30.70;;;;;;5072277;28;20385;-62
2021/10/02 11:01:12;;;;;;;18.80;5.05;;;22.60;23.00;;;;;;5085594;28;20526;-62
2021/10/02 11:03:40;;;;;;;25.80;6.00;;;22.60;23.20;;;;;;5086194;28;20446;-63
2021/10/02 11:06:14;;;;;;;15.75;5.57;;;22.60;45.40;;;;;;5088899;28;20084;-63
2021/10/02 11:08:56;;;;;;;34.13;6.88;;;22.50;41.30;;;;;;5088416;28;20035;-62
2021/10/02 11:11:44;;;;;;;29.88;7.63;;;22.80;26.90;;;;;;5089308;28;20228;-61
2021/10/02 11:14:15;;;;;;;32.15;7.72;;;22.50;45.10;;;;;;5088271;28;20067;-60
2021/10/02 11:16:43;;;;;;;30.98;7.00;;;22.50;23.70;;;;;;5088681;28;20217;-62
2021/10/02 11:19:37;;;;;;;37.20;8.50;;;22.70;47.30;;;;;;5055437;28;20477;-61
2021/10/02 11:22:35;;;;;;;39.55;8.40;;;21.30;53.80;;;;;;5084133;28;20152;-60
2021/10/02 11:25:02;;;;;;;36.10;8.57;;;22.40;41.20;;;;;;5085708;28;20028;-62
2021/10/02 11:27:28;;;;;;;33.40;8.88;;;22.50;25.30;;;;;;5086807;28;20077;-64
2021/10/02 11:30:10;;;;;;;31.40;9.35;;;22.50;24.80;;;;;;5086026;28;20457;-63
2021/10/02 11:32:37;;;;;;;32.95;10.98;;;22.40;23.90;;;;;;5087967;28;20128;-62
2021/10/02 11:35:14;;;;;;;37.33;11.55;;;22.30;23.40;;;;;;5071600;28;20131;-61
2021/10/02 11:37:59;;;;;;;37.58;12.65;;;22.20;23.50;;;;;;5086609;28;20438;-63
2021/10/02 11:40:42;;;;;;;31.88;10.55;;;22.30;23.20;;;;;;5072401;28;20550;-60
2021/10/02 11:43:18;;;;;;;37.92;11.98;;;22.20;23.00;;;;;;5087307;28;20076;-61
2021/10/02 11:45:44;;;;;;;36.13;12.50;;;;;;;;;;5086319;28;20207;-61
2021/10/02 11:48:13;;;;;;;38.00;12.05;;;22.20;34.90;;;;;;5092223;28;20024;-62
2021/10/02 11:50:39;;;;;;;45.45;12.18;;;;;;;;;;5090880;28;20073;-63
2021/10/02 11:53:06;;;;;;;35.10;10.95;;;21.70;40.80;;;;;;5091654;28;20035;-61
2021/10/02 11:58:11;;;;;;;41.15;11.27;;;22.00;22.50;;;;;;5091552;28;20329;-61
2021/10/02 12:00:44;;;;;;;26.77;10.13;;;22.00;39.70;;;;;;5089951;28;20156;-61
2021/10/02 12:03:12;;;;;;;35.38;10.38;;;22.20;49.80;;;;;;5088659;28;20081;-62
2021/10/02 12:05:41;;;;;;;37.35;9.45;;;22.20;34.70;;;;;;5076870;28;20092;-62
2021/10/02 12:08:09;;;;;;;40.35;9.73;;;22.20;46.40;;;;;;5076126;28;20064;-61
2021/10/02 12:10:54;;;;;;;32.90;8.77;;;;;;;;;;5093764;28;20366;-61
2021/10/02 12:13:27;;;;;;;27.35;7.85;;;;;;;;;;5090311;28;20481;-61
2021/10/02 12:16:06;;;;;;;30.52;8.48;;;;;;;;;;5090496;28;20055;-62
2021/10/02 12:18:51;;;;;;;34.72;9.15;;;21.40;30.70;;;;;;5090997;28;20104;-61
2021/10/02 12:21:23;;;;;;;26.10;9.50;;;22.10;21.80;;;;;;5091457;28;20103;-62
2021/10/02 12:24:04;;;;;;;29.35;13.38;;;22.00;36.90;;;;;;5092195;28;20509;-60
2021/10/02 12:26:36;;;;;;;37.05;14.75;;;21.90;21.90;;;;;;5092874;28;20426;-61
2021/10/02 12:29:05;;;;;;;36.35;14.57;;;21.90;36.50;;;;;;5073984;28;20052;-61
2021/10/02 12:32:03;;;;;;;38.85;13.07;;;21.80;22.30;;;;;;5090459;28;20050;-63
2021/10/02 12:34:39;;;;;;;34.05;13.23;;;21.90;22.60;;;;;;5089829;28;20546;-63
2021/10/02 12:37:20;;;;;;;33.28;10.98;;;21.90;22.60;;;;;;5090798;28;20087;-63
2021/10/02 12:39:56;;;;;;;31.88;10.27;;;21.90;23.00;;;;;;5090192;28;20104;-61
2021/10/02 12:42:45;;;;;;;27.95;9.80;;;21.90;23.20;;;;;;5090846;28;20080;-61
2021/10/02 12:45:25;;;;;;;23.63;8.18;;;;;;;;;;5089637;28;20087;-61
2021/10/02 12:48:04;;;;;;;30.58;8.68;;;22.30;24.60;;;;;;5090101;28;20035;-62
2021/10/02 12:50:37;;;;;;;27.48;8.93;;;22.10;23.60;;;;;;5071940;28;20081;-61
2021/10/02 12:53:04;;;;;;;18.23;6.70;;;22.20;23.90;;;;;;5089581;28;20083;-62
2021/10/02 12:55:32;;;;;;;23.67;7.00;;;22.10;23.80;;;;;;5089455;28;20600;-61
2021/10/02 12:57:58;;;;;;;17.52;6.22;;;;;;;;;;5073897;28;20853;-61
2021/10/02 13:00:35;;;;;;;23.77;6.43;;;21.90;58.50;;;;;;5089869;28;20477;-61
2021/10/02 13:03:03;;;;;;;;;;;21.90;23.50;;;;;;5073432;28;20533;-62
2021/10/02 13:05:33;;;;;;;27.42;6.97;;;21.70;31.10;;;;;;5074211;28;20002;-61
2021/10/02 13:08:07;;;;;;;16.23;5.65;;;22.00;24.30;;;;;;5090005;28;20108;-61
2021/10/02 13:10:36;;;;;;;14.57;5.88;;;22.00;25.00;;;;;;5074895;28;20076;-61
2021/10/02 13:13:04;;;;;;;15.77;5.28;;;21.90;24.80;;;;;;5088558;28;20080;-60
2021/10/02 13:15:41;;;;;;;13.65;5.30;;;21.60;30.00;;;;;;5073088;28;20089;-61
2021/10/02 13:18:14;;;;;;;17.05;5.53;;;21.90;24.90;;;;;;5089294;28;20615;-61
2021/10/02 13:20:40;;;;;;;16.13;6.55;;;21.90;25.20;;;;;;5073529;28;20126;-60
2021/10/02 13:23:08;;;;;;;;;;;21.90;25.30;;;;;;5091846;28;20124;-62
2021/10/02 13:25:40;;;;;;;24.23;6.68;;;21.90;25.60;;;;;;5073137;28;20508;-63
2021/10/02 13:28:07;;;;;;;47.80;7.13;;;22.00;25.50;;;;;;5071503;28;20072;-62
2021/10/02 13:30:35;;;;;;;38.53;7.30;;;21.90;25.70;;;;;;5088938;28;20569;-61
2021/10/02 13:33:08;;;;;;;18.67;5.93;;;22.00;26.30;;;;;;5072834;28;20076;-61
2021/10/02 13:35:39;;;;;;;30.55;6.55;;;21.90;26.30;;;;;;5088748;28;20097;-60
2021/10/02 13:38:08;;;;;;;27.00;6.10;;;21.90;26.20;;;;;;5072625;28;20075;-61
2021/10/02 13:40:38;;;;;;;33.28;6.20;;;21.80;26.40;;;;;;5091157;28;20077;-61
2021/10/02 13:43:10;;;;;;;44.45;6.72;;;21.80;26.80;;;;;;5056496;28;20587;-59
2021/10/02 13:45:41;;;;;;;25.85;5.70;;;21.80;27.00;;;;;;5073163;28;20095;-62
2021/10/02 13:48:10;;;;;;;23.25;5.78;;;21.80;27.30;;;;;;5089760;28;20079;-61
2021/10/02 13:50:39;;;;;;;25.20;6.03;;;21.90;27.30;;;;;;5091606;28;20072;-62
2021/10/02 13:53:05;;;;;;;20.65;5.80;;;21.90;27.30;;;;;;5091587;28;20072;-62
2021/10/02 13:55:32;;;;;;;27.60;7.53;;;21.90;27.80;;;;;;5072764;28;20112;-61
2021/10/02 13:58:00;;;;;;;20.30;8.73;;;21.90;28.30;;;;;;5089487;28;20114;-61
2021/10/02 14:00:28;;;;;;;24.58;8.18;;;21.80;28.60;;;;;;5090506;28;20079;-62
2021/10/02 14:02:55;;;;;;;25.70;10.65;;;21.80;29.60;;;;;;5072660;28;20414;-62